createdAt,value
2023-04-30T00:03:01.690Z,12.00
2023-04-30T00:07:06.116Z,11.90
2023-04-30T00:11:10.594Z,11.90
2023-04-30T00:15:15.160Z,11.90
2023-04-30T00:19:18.654Z,11.80
2023-04-30T00:23:23.074Z,11.80
2023-04-30T00:27:26.201Z,11.80
2023-04-30T00:31:29.325Z,11.70
2023-04-30T00:35:33.912Z,11.70
2023-04-30T00:39:38.365Z,11.70
2023-04-30T00:43:44.392Z,11.70
2023-04-30T00:48:01.354Z,11.60
2023-04-30T00:52:04.438Z,11.70
2023-04-30T00:56:11.013Z,11.70
2023-04-30T01:00:16.504Z,11.70
2023-04-30T01:04:19.886Z,11.70
2023-04-30T01:08:23.229Z,11.70
2023-04-30T01:12:39.229Z,11.70
2023-04-30T01:16:48.481Z,11.70
2023-04-30T01:20:58.840Z,11.70
2023-04-30T01:25:12.363Z,11.70
2023-04-30T01:29:24.197Z,11.60
2023-04-30T01:33:29.164Z,11.60
2023-04-30T01:37:41.544Z,11.60
2023-04-30T01:41:56.092Z,11.60
2023-04-30T01:46:14.608Z,11.50
2023-04-30T01:50:26.179Z,11.50
2023-04-30T01:54:40.485Z,11.50
2023-04-30T01:58:44.420Z,11.50
2023-04-30T02:02:54.181Z,11.40
2023-04-30T02:06:58.868Z,11.40
2023-04-30T02:11:02.053Z,11.40
2023-04-30T02:15:06.262Z,11.40
2023-04-30T02:19:11.267Z,11.40
2023-04-30T02:23:14.768Z,11.40
2023-04-30T02:27:18.086Z,11.30
2023-04-30T02:31:23.530Z,11.30
2023-04-30T02:35:30.583Z,11.40
2023-04-30T02:39:36.300Z,11.30
2023-04-30T02:43:42.545Z,11.30
2023-04-30T02:47:48.372Z,11.30
2023-04-30T02:51:54.589Z,11.30
2023-04-30T02:55:59.299Z,11.30
2023-04-30T03:00:04.084Z,11.30
2023-04-30T03:04:07.206Z,11.30
2023-04-30T03:08:14.605Z,11.30
2023-04-30T03:12:17.681Z,11.30
2023-04-30T03:16:22.962Z,11.30
2023-04-30T03:20:28.216Z,11.30
2023-04-30T03:24:33.007Z,11.30
2023-04-30T03:28:38.063Z,11.30
2023-04-30T03:32:41.096Z,11.40
2023-04-30T03:36:44.151Z,11.40
2023-04-30T03:40:51.180Z,11.40
2023-04-30T03:44:54.359Z,11.30
2023-04-30T03:48:57.369Z,11.30
2023-04-30T03:53:03.691Z,11.20
2023-04-30T03:57:10.779Z,11.20
2023-04-30T04:01:13.905Z,11.00
2023-04-30T04:05:21.898Z,11.00
2023-04-30T04:09:27.548Z,10.80
2023-04-30T04:13:34.806Z,10.80
2023-04-30T04:17:39.910Z,10.70
2023-04-30T04:21:44.486Z,10.70
2023-04-30T04:25:49.665Z,10.70
2023-04-30T04:29:57.132Z,10.70
2023-04-30T04:34:02.903Z,10.70
2023-04-30T04:38:05.989Z,10.70
2023-04-30T04:42:09.781Z,10.80
2023-04-30T04:46:16.712Z,10.80
2023-04-30T04:50:21.082Z,10.90
2023-04-30T04:54:24.255Z,11.00
2023-04-30T04:58:27.298Z,11.00
2023-04-30T05:02:32.195Z,11.10
2023-04-30T05:06:35.578Z,11.20
2023-04-30T05:10:41.085Z,11.40
2023-04-30T05:14:46.146Z,11.50
2023-04-30T05:18:52.345Z,11.70
2023-04-30T05:22:55.363Z,11.60
2023-04-30T05:26:58.755Z,11.50
2023-04-30T05:31:01.790Z,11.40
2023-04-30T05:35:10.356Z,11.20
2023-04-30T05:39:13.411Z,11.30
2023-04-30T05:43:17.014Z,11.40
2023-04-30T05:47:20.079Z,11.60
2023-04-30T05:51:27.942Z,11.80
2023-04-30T05:55:31.124Z,11.90
2023-04-30T05:59:34.136Z,12.10
2023-04-30T06:03:37.123Z,12.30
2023-04-30T06:07:43.949Z,12.50
2023-04-30T06:11:50.440Z,12.60
2023-04-30T06:15:53.482Z,12.70
2023-04-30T06:19:58.630Z,12.90
2023-04-30T06:24:05.790Z,13.20
2023-04-30T06:28:10.078Z,13.40
2023-04-30T06:32:14.957Z,13.40
2023-04-30T06:36:18.944Z,13.50
2023-04-30T06:40:23.606Z,13.70
2023-04-30T06:44:32.183Z,13.70
2023-04-30T06:48:40.739Z,13.90
2023-04-30T06:52:43.772Z,14.10
2023-04-30T06:56:48.207Z,14.20
2023-04-30T07:00:54.018Z,14.30
2023-04-30T07:04:57.315Z,14.50
2023-04-30T07:09:05.193Z,14.30
2023-04-30T07:13:09.618Z,14.50
2023-04-30T07:17:12.796Z,14.70
2023-04-30T07:21:18.124Z,15.10
2023-04-30T07:25:22.151Z,16.00
2023-04-30T07:29:27.073Z,17.00
2023-04-30T07:33:32.316Z,17.40
2023-04-30T07:37:38.052Z,18.40
2023-04-30T07:41:43.214Z,19.20
2023-04-30T07:45:51.863Z,19.30
2023-04-30T07:49:57.393Z,19.00
2023-04-30T07:54:01.805Z,18.50
2023-04-30T07:58:05.051Z,18.20
2023-04-30T08:02:10.459Z,18.10
2023-04-30T08:06:13.597Z,17.80
2023-04-30T08:10:19.689Z,17.30
2023-04-30T08:14:24.017Z,16.80
2023-04-30T08:18:29.461Z,16.50
2023-04-30T08:22:35.633Z,16.20
2023-04-30T08:26:38.670Z,16.40
2023-04-30T08:30:43.695Z,16.70
2023-04-30T08:34:48.053Z,16.70
2023-04-30T08:38:51.145Z,16.70
2023-04-30T08:43:04.900Z,17.20
2023-04-30T08:47:09.654Z,17.30
2023-04-30T08:51:14.365Z,17.60
2023-04-30T08:55:17.788Z,17.30
2023-04-30T08:59:20.847Z,17.30
2023-04-30T09:03:24.200Z,17.00
2023-04-30T09:07:32.739Z,16.80
2023-04-30T09:11:39.058Z,17.40
2023-04-30T09:15:45.979Z,18.50
2023-04-30T09:19:49.377Z,18.00
2023-04-30T09:24:01.629Z,17.60
2023-04-30T09:28:11.906Z,17.20
2023-04-30T09:32:16.451Z,16.90
2023-04-30T09:36:23.585Z,17.20
2023-04-30T09:40:41.204Z,17.50
2023-04-30T09:44:44.588Z,17.60
2023-04-30T09:48:49.390Z,17.70
2023-04-30T09:52:54.532Z,17.90
2023-04-30T09:57:03.546Z,17.80
2023-04-30T10:01:08.569Z,17.90
2023-04-30T10:05:12.330Z,18.10
2023-04-30T10:09:16.095Z,18.50
2023-04-30T10:13:22.233Z,18.60
2023-04-30T10:17:28.980Z,18.10
2023-04-30T10:21:34.036Z,18.00
2023-04-30T10:25:41.017Z,18.00
2023-04-30T10:29:47.670Z,18.80
2023-04-30T10:34:04.318Z,19.70
2023-04-30T10:38:24.820Z,20.30
2023-04-30T10:42:28.663Z,21.60
2023-04-30T10:46:36.256Z,23.30
2023-04-30T10:50:46.015Z,24.30
2023-04-30T10:54:54.301Z,23.60
2023-04-30T10:59:01.227Z,22.90
2023-04-30T11:03:05.841Z,21.90
2023-04-30T11:07:10.943Z,21.60
2023-04-30T11:11:21.665Z,21.20
2023-04-30T11:15:27.501Z,21.70
2023-04-30T11:19:34.836Z,21.20
2023-04-30T11:23:41.745Z,20.80
2023-04-30T11:27:46.549Z,20.50
2023-04-30T11:31:49.900Z,20.50
2023-04-30T11:35:59.038Z,21.50
2023-04-30T11:40:03.967Z,21.50
2023-04-30T11:44:24.024Z,22.20
2023-04-30T11:48:36.999Z,21.80
2023-04-30T11:52:45.653Z,22.30
2023-04-30T11:56:55.482Z,21.80
2023-04-30T12:01:04.222Z,21.90
2023-04-30T12:05:13.758Z,21.50
2023-04-30T12:09:18.405Z,21.30
2023-04-30T12:13:21.665Z,21.10
2023-04-30T12:17:34.839Z,21.20
2023-04-30T12:21:39.096Z,21.80
2023-04-30T12:25:44.048Z,22.10
2023-04-30T12:29:48.748Z,22.30
2023-04-30T12:34:02.456Z,22.10
2023-04-30T12:38:08.282Z,22.00
2023-04-30T12:42:12.752Z,22.10
2023-04-30T12:46:27.761Z,22.60
2023-04-30T12:50:33.063Z,22.90
2023-04-30T12:54:39.978Z,22.90
2023-04-30T12:58:47.662Z,21.80
2023-04-30T13:02:55.986Z,20.90
2023-04-30T13:07:02.061Z,20.50
2023-04-30T13:11:05.366Z,20.70
2023-04-30T13:15:12.494Z,20.60
2023-04-30T13:19:15.548Z,20.70
2023-04-30T13:23:20.575Z,20.70
2023-04-30T13:27:23.653Z,21.20
2023-04-30T13:31:28.907Z,21.40
2023-04-30T13:35:32.057Z,20.80
2023-04-30T13:39:42.374Z,20.30
2023-04-30T13:43:47.807Z,20.00
2023-04-30T13:47:52.290Z,20.40
2023-04-30T13:51:56.440Z,22.20
2023-04-30T13:56:05.534Z,22.90
2023-04-30T14:00:10.212Z,22.40
2023-04-30T14:04:15.421Z,22.20
2023-04-30T14:08:19.354Z,22.10
2023-04-30T14:12:25.338Z,22.60
2023-04-30T14:16:28.999Z,21.90
2023-04-30T14:20:33.436Z,22.00
2023-04-30T14:24:36.486Z,22.40
2023-04-30T14:28:39.536Z,22.60
2023-04-30T14:32:44.647Z,23.00
2023-04-30T14:36:54.000Z,23.60
2023-04-30T14:40:59.592Z,24.20
2023-04-30T14:45:04.739Z,25.00
2023-04-30T14:49:08.025Z,25.70
2023-04-30T14:53:12.859Z,25.20
2023-04-30T14:57:18.767Z,25.20
2023-04-30T15:01:22.418Z,24.90
2023-04-30T15:05:25.973Z,24.90
2023-04-30T15:09:33.132Z,24.90
2023-04-30T15:13:41.945Z,24.90
2023-04-30T15:17:45.277Z,24.00
2023-04-30T15:21:49.202Z,23.10
2023-04-30T15:26:10.199Z,22.90
2023-04-30T15:30:15.090Z,22.70
2023-04-30T15:34:18.112Z,22.10
2023-04-30T15:38:22.048Z,21.60
2023-04-30T15:42:28.734Z,21.20
2023-04-30T15:46:35.041Z,20.60
2023-04-30T15:50:38.059Z,20.60
2023-04-30T15:54:42.961Z,21.00
2023-04-30T15:58:47.609Z,22.00
2023-04-30T16:02:50.831Z,22.90
2023-04-30T16:06:53.963Z,23.30
2023-04-30T16:11:04.462Z,22.90
2023-04-30T16:15:13.542Z,22.00
2023-04-30T16:19:20.764Z,21.20
2023-04-30T16:23:25.401Z,20.50
2023-04-30T16:27:28.413Z,20.20
2023-04-30T16:31:32.889Z,20.50
2023-04-30T16:35:37.068Z,21.20
2023-04-30T16:39:40.472Z,21.70
2023-04-30T16:43:51.353Z,21.80
2023-04-30T16:47:56.561Z,21.80
2023-04-30T16:51:59.555Z,21.60
2023-04-30T16:56:04.396Z,21.50
2023-04-30T17:00:08.862Z,21.60
2023-04-30T17:04:14.271Z,21.60
2023-04-30T17:08:20.721Z,21.60
2023-04-30T17:12:28.104Z,21.40
2023-04-30T17:16:31.348Z,21.10
2023-04-30T17:20:37.046Z,20.80
2023-04-30T17:24:42.805Z,20.40
2023-04-30T17:28:45.929Z,20.00
2023-04-30T17:32:49.589Z,19.60
2023-04-30T17:36:54.628Z,19.10
2023-04-30T17:40:58.721Z,18.60
2023-04-30T17:45:05.019Z,18.20
2023-04-30T17:49:08.928Z,17.80
2023-04-30T17:53:13.572Z,17.60
2023-04-30T17:57:16.732Z,17.30
2023-04-30T18:01:20.158Z,17.00
2023-04-30T18:05:29.279Z,16.80
2023-04-30T18:09:36.021Z,16.50
2023-04-30T18:13:39.521Z,16.30
2023-04-30T18:17:44.627Z,16.10
2023-04-30T18:21:48.401Z,15.90
2023-04-30T18:25:53.130Z,15.60
2023-04-30T18:29:57.869Z,15.50
2023-04-30T18:34:04.027Z,15.30
2023-04-30T18:38:18.181Z,15.20
2023-04-30T18:42:23.472Z,15.10
2023-04-30T18:46:26.533Z,15.00
2023-04-30T18:50:32.924Z,15.00
2023-04-30T18:54:36.234Z,14.90
2023-04-30T18:58:40.835Z,14.90
2023-04-30T19:02:44.230Z,14.80
2023-04-30T19:06:50.011Z,14.70
2023-04-30T19:20:32.505Z,14.40
2023-04-30T19:25:18.308Z,14.30
2023-04-30T19:29:22.239Z,14.20
2023-04-30T19:33:28.416Z,14.10
2023-04-30T19:38:18.121Z,14.00
2023-04-30T19:43:13.895Z,13.80
2023-04-30T19:57:04.091Z,13.10
2023-04-30T20:01:19.096Z,13.00
2023-04-30T20:10:46.883Z,12.80
2023-04-30T20:14:51.577Z,12.60
2023-04-30T20:18:56.919Z,12.50
2023-04-30T20:22:59.994Z,12.10
2023-04-30T20:27:04.116Z,11.80
2023-04-30T20:31:09.757Z,11.60
2023-04-30T20:35:15.193Z,11.40
2023-04-30T20:39:21.224Z,11.40
2023-04-30T20:43:24.446Z,11.50
2023-04-30T20:47:28.992Z,11.60
2023-04-30T20:51:37.090Z,11.50
2023-04-30T20:55:41.884Z,11.60
2023-04-30T20:59:49.240Z,11.70
2023-04-30T21:03:55.724Z,11.70
2023-04-30T21:08:03.422Z,11.60
2023-04-30T21:28:14.000Z,11.20
2023-04-30T21:43:01.293Z,11.10
2023-04-30T22:13:14.295Z,11.40
2023-04-30T22:17:29.383Z,11.40
2023-04-30T22:21:33.954Z,11.40
2023-04-30T22:25:36.969Z,11.40
2023-04-30T22:29:40.246Z,11.40
2023-04-30T22:33:44.382Z,11.40
2023-04-30T22:37:55.412Z,11.30
2023-04-30T22:41:59.527Z,11.30
2023-04-30T22:46:04.767Z,11.20
2023-04-30T22:50:11.099Z,11.10
2023-04-30T22:54:15.832Z,11.00
2023-04-30T22:58:18.809Z,11.00
2023-04-30T23:02:21.806Z,10.90
2023-04-30T23:06:25.494Z,10.80
2023-04-30T23:10:29.976Z,10.80
2023-04-30T23:14:34.802Z,10.70
2023-04-30T23:18:37.948Z,10.60
2023-04-30T23:22:40.980Z,10.60
2023-04-30T23:26:47.249Z,10.50
2023-04-30T23:30:54.686Z,10.40
2023-04-30T23:34:58.103Z,10.40
2023-04-30T23:39:01.442Z,10.30
2023-04-30T23:43:06.119Z,10.30
2023-04-30T23:47:10.830Z,10.20
2023-04-30T23:51:18.133Z,10.20
2023-04-30T23:55:24.665Z,10.20
2023-04-30T23:59:30.311Z,10.10
